Time;durP1;ratioP1;P1;durP2;ratioP2;P2;SDS_P1;SDS_P2;PMS_P1;PMS_P2;Temp;Humidity;BMP_temperature;BMP_pressure;BME280_temperature;BME280_humidity;BME280_pressure;Samples;Min_cycle;Max_cycle;Signal;HPM_P1;HPM_P2
2023/12/17 00:00:49;;;;;;;24.77;12.85;;;0.30;99.90;;;;;;5091684;28;20831;-68
2023/12/17 00:03:17;;;;;;;25.15;13.95;;;0.30;99.90;;;;;;5089062;28;20239;-70
2023/12/17 00:05:48;;;;;;;25.15;14.02;;;0.10;99.90;;;;;;5088842;28;20259;-70
2023/12/17 00:08:19;;;;;;;24.10;13.40;;;0.10;99.90;;;;;;5093147;28;20679;-69
2023/12/17 00:10:49;;;;;;;25.02;13.82;;;0.10;99.90;;;;;;5093111;28;20199;-68
2023/12/17 00:13:18;;;;;;;27.77;15.70;;;0.20;99.90;;;;;;5089657;27;20209;-71
2023/12/17 00:15:46;;;;;;;24.85;13.60;;;0.20;99.90;;;;;;5089566;28;20333;-70
2023/12/17 00:18:14;;;;;;;25.23;13.88;;;0.20;99.90;;;;;;5092213;28;20199;-71
2023/12/17 00:20:42;;;;;;;24.63;12.65;;;0.20;99.90;;;;;;5092906;28;20224;-70
2023/12/17 00:23:10;;;;;;;23.88;12.93;;;0.20;99.90;;;;;;5092030;28;21031;-69
2023/12/17 00:25:41;;;;;;;27.85;15.18;;;0.30;99.90;;;;;;5090883;28;20229;-70
2023/12/17 00:28:09;;;;;;;23.45;13.00;;;0.30;99.90;;;;;;5091502;28;20885;-68
2023/12/17 00:30:37;;;;;;;24.35;12.77;;;0.50;99.90;;;;;;5093113;28;20192;-69
2023/12/17 00:33:05;;;;;;;24.90;13.50;;;0.40;99.90;;;;;;5093833;27;20247;-70
2023/12/17 00:35:33;;;;;;;21.08;11.82;;;0.30;99.90;;;;;;5090558;28;20308;-71
2023/12/17 00:38:01;;;;;;;27.13;14.27;;;0.20;99.90;;;;;;5097655;27;20209;-70
2023/12/17 00:40:29;;;;;;;23.17;12.80;;;0.10;99.90;;;;;;5098653;27;20837;-70
2023/12/17 00:42:59;;;;;;;23.48;12.93;;;0.20;99.90;;;;;;5093687;28;20276;-70
2023/12/17 00:45:27;;;;;;;25.00;12.68;;;0.20;99.90;;;;;;5093816;27;20314;-71
2023/12/17 00:47:55;;;;;;;27.50;14.75;;;0.20;99.90;;;;;;5093198;28;20573;-70
2023/12/17 00:50:23;;;;;;;48.53;14.70;;;0.10;99.90;;;;;;5095971;28;20302;-71
2023/12/17 00:52:51;;;;;;;47.72;17.02;;;0.10;99.90;;;;;;5097101;28;20690;-70
2023/12/17 00:55:18;;;;;;;52.60;15.90;;;0.20;99.90;;;;;;5087469;28;20218;-69
2023/12/17 00:57:46;;;;;;;37.00;13.50;;;0.10;99.90;;;;;;5091621;28;20209;-70
2023/12/17 01:00:16;;;;;;;36.85;13.63;;;0.20;99.90;;;;;;5086075;28;20711;-68
2023/12/17 01:02:45;;;;;;;27.52;13.27;;;0.20;99.90;;;;;;5088828;28;20220;-68
2023/12/17 01:05:14;;;;;;;25.83;12.77;;;0.20;99.90;;;;;;5094545;28;20307;-70
2023/12/17 01:07:42;;;;;;;44.47;16.23;;;0.40;99.90;;;;;;5101980;28;20682;-68
2023/12/17 01:10:10;;;;;;;73.07;18.67;;;0.40;99.90;;;;;;5101870;28;20203;-69
2023/12/17 01:12:38;;;;;;;92.68;19.65;;;0.30;99.90;;;;;;5095606;28;20196;-68
2023/12/17 01:15:06;;;;;;;67.82;16.33;;;0.20;99.90;;;;;;5079795;28;20254;-70
2023/12/17 01:17:36;;;;;;;46.28;15.32;;;0.20;99.90;;;;;;5100934;28;20203;-70
2023/12/17 01:20:05;;;;;;;42.95;14.60;;;0.20;99.90;;;;;;5099840;28;20208;-68
2023/12/17 01:22:33;;;;;;;89.03;18.23;;;0.10;99.90;;;;;;5048124;28;20223;-70
2023/12/17 01:25:01;;;;;;;41.33;13.43;;;0.10;99.90;;;;;;5100759;28;20277;-70
2023/12/17 01:27:29;;;;;;;56.45;15.02;;;0.00;99.90;;;;;;5101451;28;20673;-69
2023/12/17 01:29:56;;;;;;;44.80;14.25;;;0.00;99.90;;;;;;5101328;28;20220;-70
2023/12/17 01:32:24;;;;;;;29.45;12.55;;;-0.10;99.90;;;;;;5100869;27;20203;-70
2023/12/17 01:34:54;;;;;;;29.00;12.82;;;-0.10;99.90;;;;;;5095284;28;20270;-70
2023/12/17 01:37:22;;;;;;;26.52;12.38;;;-0.10;99.90;;;;;;5097343;28;20221;-69
2023/12/17 01:39:50;;;;;;;23.88;12.23;;;-0.10;99.90;;;;;;5097057;28;20233;-69
2023/12/17 01:42:18;;;;;;;20.88;11.95;;;0.10;99.90;;;;;;5099035;28;20708;-70
2023/12/17 01:44:46;;;;;;;23.60;11.88;;;0.20;99.90;;;;;;5101253;28;20220;-69
2023/12/17 01:47:14;;;;;;;25.63;12.45;;;0.40;99.90;;;;;;5102290;28;20299;-69
2023/12/17 01:49:42;;;;;;;21.67;10.95;;;0.30;99.90;;;;;;5089419;28;20200;-68
2023/12/17 01:52:12;;;;;;;23.45;12.18;;;0.30;99.90;;;;;;5090401;28;20717;-71
2023/12/17 01:54:40;;;;;;;20.83;11.75;;;0.40;99.90;;;;;;5092711;27;20250;-69
2023/12/17 01:57:08;;;;;;;23.48;12.50;;;0.30;99.90;;;;;;5101880;27;20422;-68
2023/12/17 01:59:37;;;;;;;21.13;10.68;;;0.30;99.90;;;;;;5111487;27;20198;-68
2023/12/17 02:02:05;;;;;;;21.52;11.30;;;0.20;99.90;;;;;;5111583;27;20290;-68
2023/12/17 02:04:33;;;;;;;20.05;10.52;;;0.10;99.90;;;;;;5083834;28;20212;-69
2023/12/17 02:07:01;;;;;;;29.90;12.73;;;0.20;99.90;;;;;;5085509;28;20216;-69
2023/12/17 02:09:30;;;;;;;37.63;13.40;;;0.20;99.90;;;;;;5084809;28;20201;-68
2023/12/17 02:11:58;;;;;;;31.35;12.75;;;0.10;99.90;;;;;;5085585;28;20200;-68
2023/12/17 02:14:27;;;;;;;35.15;13.18;;;0.10;99.90;;;;;;5084950;28;20280;-69
2023/12/17 02:16:55;;;;;;;44.47;14.60;;;0.10;99.90;;;;;;5091857;28;20208;-68
2023/12/17 02:19:23;;;;;;;20.35;11.10;;;0.10;99.90;;;;;;5084458;28;20216;-68
2023/12/17 02:21:51;;;;;;;39.65;15.18;;;0.00;99.90;;;;;;5085160;28;20315;-69
2023/12/17 02:24:20;;;;;;;43.03;13.57;;;0.20;99.90;;;;;;5085715;28;20213;-68
2023/12/17 02:26:48;;;;;;;30.67;12.90;;;0.30;99.90;;;;;;5086268;28;20371;-68
2023/12/17 02:29:16;;;;;;;42.90;13.73;;;0.20;99.90;;;;;;5084993;28;20229;-68
2023/12/17 02:31:44;;;;;;;57.58;14.77;;;0.10;99.90;;;;;;5085319;28;20312;-68
2023/12/17 02:34:13;;;;;;;102.30;20.60;;;0.10;99.90;;;;;;5087636;28;20237;-68
2023/12/17 02:36:43;;;;;;;65.70;17.65;;;0.10;99.90;;;;;;5093158;28;20239;-68
2023/12/17 02:39:11;;;;;;;45.85;16.40;;;0.10;99.90;;;;;;5085213;28;20222;-69
2023/12/17 02:41:41;;;;;;;31.10;12.13;;;0.20;99.90;;;;;;5088247;28;20222;-69
2023/12/17 02:44:09;;;;;;;25.58;13.82;;;0.20;99.90;;;;;;5088317;28;20861;-68
2023/12/17 02:46:37;;;;;;;22.55;12.65;;;0.10;99.90;;;;;;5083571;28;20307;-68
2023/12/17 02:49:06;;;;;;;22.10;13.23;;;0.10;99.90;;;;;;5088318;28;20204;-68
2023/12/17 02:51:34;;;;;;;23.17;13.68;;;0.10;99.90;;;;;;5085819;28;20204;-67
2023/12/17 02:54:02;;;;;;;21.95;12.60;;;0.10;99.90;;;;;;5085070;28;20206;-68
2023/12/17 02:56:30;;;;;;;23.20;13.52;;;0.00;99.90;;;;;;5085070;28;20335;-69
2023/12/17 02:58:59;;;;;;;22.80;12.70;;;0.10;99.90;;;;;;5085737;28;20212;-69
2023/12/17 03:01:27;;;;;;;25.02;13.30;;;0.20;99.90;;;;;;5085073;28;20209;-67
2023/12/17 03:03:54;;;;;;;21.75;12.25;;;0.30;99.90;;;;;;5082647;28;20220;-67
2023/12/17 03:06:23;;;;;;;22.90;12.63;;;0.20;99.90;;;;;;5083570;28;20240;-67
2023/12/17 03:08:51;;;;;;;23.13;11.65;;;0.10;99.90;;;;;;5082892;28;20281;-68
2023/12/17 03:11:18;;;;;;;22.15;11.80;;;0.10;99.90;;;;;;5084545;28;20279;-68
2023/12/17 03:13:49;;;;;;;21.75;12.00;;;0.00;99.90;;;;;;5083469;28;20308;-69
2023/12/17 03:16:19;;;;;;;20.42;11.93;;;-0.20;99.90;;;;;;5091703;28;20229;-68
2023/12/17 03:18:49;;;;;;;22.80;11.90;;;-0.20;99.90;;;;;;5084107;28;20315;-68
2023/12/17 03:21:17;;;;;;;21.90;11.70;;;-0.20;99.90;;;;;;5084226;28;20212;-67
2023/12/17 03:23:46;;;;;;;19.73;10.13;;;-0.30;99.90;;;;;;5083955;28;20935;-68
2023/12/17 03:26:14;;;;;;;18.40;10.88;;;0.00;99.90;;;;;;5083587;28;20316;-66
2023/12/17 03:28:42;;;;;;;19.33;10.20;;;0.00;99.90;;;;;;5084465;28;20214;-68
2023/12/17 03:31:13;;;;;;;18.55;9.75;;;0.10;99.90;;;;;;5083228;28;20208;-68
2023/12/17 03:33:42;;;;;;;19.85;11.00;;;0.20;99.90;;;;;;5084939;28;20229;-66
2023/12/17 03:36:14;;;;;;;21.65;12.23;;;0.30;99.90;;;;;;5084201;28;20700;-67
2023/12/17 03:38:44;;;;;;;23.95;12.20;;;0.30;99.90;;;;;;5084412;28;20678;-67
2023/12/17 03:41:21;;;;;;;22.67;12.75;;;0.30;99.90;;;;;;5084679;28;20233;-66
2023/12/17 03:43:51;;;;;;;21.10;11.23;;;0.20;99.90;;;;;;5087914;28;20701;-68
2023/12/17 03:46:21;;;;;;;19.52;11.60;;;0.10;99.90;;;;;;5087474;28;20831;-68
2023/12/17 03:48:53;;;;;;;19.58;10.57;;;0.10;99.90;;;;;;5088411;28;20267;-66
2023/12/17 03:51:21;;;;;;;19.60;10.65;;;0.00;99.90;;;;;;5088665;28;20595;-69
2023/12/17 03:53:49;;;;;;;20.92;11.02;;;0.10;99.90;;;;;;5087187;28;20213;-67
2023/12/17 03:56:17;;;;;;;21.25;11.57;;;0.00;99.90;;;;;;5087185;28;20275;-67
2023/12/17 03:58:45;;;;;;;19.38;10.60;;;-0.10;99.90;;;;;;5087882;28;20203;-69
2023/12/17 04:01:13;;;;;;;18.80;10.07;;;-0.10;99.90;;;;;;5088017;28;20226;-68
2023/12/17 04:03:41;;;;;;;16.80;9.43;;;-0.20;99.90;;;;;;5087480;28;20590;-70
2023/12/17 04:06:11;;;;;;;17.30;8.95;;;-0.20;99.90;;;;;;5087936;28;20382;-69
2023/12/17 04:08:39;;;;;;;16.08;9.57;;;-0.20;99.90;;;;;;5088776;28;20572;-68
2023/12/17 04:11:07;;;;;;;17.58;10.35;;;-0.30;99.90;;;;;;5094852;28;20676;-67
2023/12/17 04:13:37;;;;;;;17.13;9.50;;;-0.30;99.90;;;;;;5097880;28;20214;-68
2023/12/17 04:16:06;;;;;;;18.33;10.00;;;-0.40;99.90;;;;;;5088146;28;20227;-68
2023/12/17 04:18:33;;;;;;;16.60;8.70;;;-0.30;99.90;;;;;;5088741;28;20616;-69
2023/12/17 04:21:01;;;;;;;14.60;8.20;;;-0.30;99.90;;;;;;5088665;28;20573;-69
2023/12/17 04:23:31;;;;;;;16.27;8.70;;;-0.30;99.90;;;;;;5088333;28;20314;-69
2023/12/17 04:25:59;;;;;;;16.52;8.65;;;-0.30;99.90;;;;;;5088139;28;20215;-68
2023/12/17 04:28:27;;;;;;;18.27;9.52;;;-0.40;99.90;;;;;;5088529;28;20210;-67
2023/12/17 04:30:55;;;;;;;16.63;9.00;;;-0.40;99.90;;;;;;5088485;28;20204;-67
2023/12/17 04:33:22;;;;;;;14.90;8.82;;;-0.40;99.90;;;;;;5087812;28;20257;-67
2023/12/17 04:35:51;;;;;;;15.50;8.98;;;-0.40;99.90;;;;;;5087820;28;20297;-68
2023/12/17 04:38:19;;;;;;;17.92;9.23;;;-0.40;99.90;;;;;;5088516;28;20291;-69
2023/12/17 04:40:48;;;;;;;17.30;9.50;;;-0.40;99.90;;;;;;5088178;28;20657;-69
2023/12/17 04:43:16;;;;;;;18.67;9.63;;;-0.30;99.90;;;;;;5087905;28;20215;-68
2023/12/17 04:45:44;;;;;;;16.90;8.57;;;-0.40;99.90;;;;;;5100841;28;20220;-68
2023/12/17 04:48:12;;;;;;;16.27;7.85;;;-0.40;99.90;;;;;;5108888;28;20849;-68
2023/12/17 04:50:41;;;;;;;14.52;7.72;;;-0.40;99.90;;;;;;5107559;28;20838;-68
2023/12/17 04:53:09;;;;;;;15.18;8.35;;;-0.50;99.90;;;;;;5107311;28;20556;-68
2023/12/17 04:55:37;;;;;;;16.15;8.73;;;-0.50;99.90;;;;;;5106915;28;20227;-68
2023/12/17 04:58:06;;;;;;;20.00;8.88;;;-0.30;99.90;;;;;;5108089;28;20227;-68
2023/12/17 05:00:36;;;;;;;17.88;8.95;;;-0.20;99.90;;;;;;5107519;28;20202;-68
2023/12/17 05:03:07;;;;;;;16.63;8.65;;;-0.30;99.90;;;;;;5107048;28;20218;-68
2023/12/17 05:05:38;;;;;;;16.23;8.80;;;-0.40;99.90;;;;;;5106785;28;20227;-67
2023/12/17 05:08:06;;;;;;;17.52;9.00;;;-0.50;99.90;;;;;;5106375;28;20199;-67
2023/12/17 05:10:34;;;;;;;16.60;9.68;;;-0.50;99.90;;;;;;5086662;28;20635;-67
2023/12/17 05:13:02;;;;;;;17.85;9.48;;;-0.40;99.90;;;;;;5085513;28;20196;-67
2023/12/17 05:15:31;;;;;;;17.80;7.93;;;-0.50;99.90;;;;;;5084434;28;20235;-67
2023/12/17 05:17:59;;;;;;;16.23;7.68;;;-0.50;99.90;;;;;;5087584;28;20210;-67
2023/12/17 05:20:28;;;;;;;14.95;7.90;;;-0.40;99.90;;;;;;5087124;28;20205;-69
2023/12/17 05:22:56;;;;;;;19.02;9.38;;;-0.40;99.90;;;;;;5086724;28;20239;-69
2023/12/17 05:25:23;;;;;;;16.60;8.30;;;-0.40;99.90;;;;;;5084632;28;20277;-67
2023/12/17 05:27:51;;;;;;;14.38;8.13;;;-0.50;99.90;;;;;;5086209;28;20355;-68
2023/12/17 05:30:19;;;;;;;17.10;8.98;;;-0.50;99.90;;;;;;5086310;28;20200;-69
2023/12/17 05:32:49;;;;;;;17.05;9.00;;;-0.50;99.90;;;;;;5098241;28;20619;-68
2023/12/17 05:35:17;;;;;;;15.68;7.68;;;-0.60;99.90;;;;;;5105826;28;20237;-69
2023/12/17 05:37:48;;;;;;;14.38;6.88;;;-0.60;99.90;;;;;;5106610;28;20213;-68
2023/12/17 05:40:16;;;;;;;14.82;7.85;;;-0.50;99.90;;;;;;5105516;28;20203;-69
2023/12/17 05:42:44;;;;;;;14.43;8.45;;;-0.50;99.90;;;;;;5104949;28;20211;-67
2023/12/17 05:45:12;;;;;;;14.60;7.68;;;-0.40;99.90;;;;;;5105633;28;20234;-68
2023/12/17 05:47:41;;;;;;;16.23;8.32;;;-0.40;99.90;;;;;;5106427;28;20239;-68
2023/12/17 05:50:11;;;;;;;17.17;8.02;;;-0.50;99.90;;;;;;5105969;28;20564;-68
2023/12/17 05:52:40;;;;;;;17.92;10.40;;;-0.60;99.90;;;;;;5105452;28;20680;-67
2023/12/17 05:55:09;;;;;;;17.85;8.38;;;-0.50;99.90;;;;;;5104723;28;20223;-68
2023/12/17 05:57:36;;;;;;;15.90;8.73;;;-0.50;99.90;;;;;;5107433;28;20236;-68
2023/12/17 06:00:08;;;;;;;16.15;7.65;;;-0.50;99.90;;;;;;5107166;28;20716;-68
2023/12/17 06:02:36;;;;;;;16.52;8.43;;;-0.30;99.90;;;;;;5105623;28;20199;-69
2023/12/17 06:05:05;;;;;;;15.75;8.65;;;-0.20;99.90;;;;;;5104730;28;20280;-66
2023/12/17 06:07:34;;;;;;;16.45;8.82;;;-0.20;99.90;;;;;;5105784;28;20211;-68
2023/12/17 06:10:02;;;;;;;17.73;8.32;;;-0.30;99.90;;;;;;5106051;28;20199;-68
2023/12/17 06:12:30;;;;;;;19.85;9.98;;;-0.20;99.90;;;;;;5105382;28;20223;-68
2023/12/17 06:14:58;;;;;;;15.85;8.10;;;-0.10;99.90;;;;;;5104974;28;20230;-69
2023/12/17 06:17:26;;;;;;;15.60;8.60;;;-0.10;99.90;;;;;;5105306;28;20261;-69
2023/12/17 06:19:54;;;;;;;17.67;8.63;;;-0.20;99.90;;;;;;5104981;28;20805;-67
2023/12/17 06:22:24;;;;;;;15.38;7.63;;;-0.20;99.90;;;;;;5105218;28;20294;-67
2023/12/17 06:25:00;;;;;;;15.38;7.78;;;-0.20;99.90;;;;;;5104706;28;20244;-70
2023/12/17 06:27:30;;;;;;;15.65;7.85;;;-0.20;99.90;;;;;;5105256;28;20263;-67
2023/12/17 06:30:00;;;;;;;17.65;8.52;;;-0.20;99.90;;;;;;5104083;28;20204;-68
2023/12/17 06:32:28;;;;;;;16.40;8.15;;;-0.20;99.90;;;;;;5105904;28;20298;-68
2023/12/17 06:34:58;;;;;;;15.70;9.25;;;-0.20;99.90;;;;;;5105492;28;20236;-67
2023/12/17 06:37:27;;;;;;;16.05;8.63;;;-0.30;99.90;;;;;;5106215;28;20740;-67
2023/12/17 06:39:57;;;;;;;16.15;8.30;;;-0.30;99.90;;;;;;5106001;28;20261;-67
2023/12/17 06:42:25;;;;;;;16.42;8.82;;;-0.40;99.90;;;;;;5106009;28;20206;-66
2023/12/17 06:44:52;;;;;;;16.35;8.73;;;-0.40;99.90;;;;;;5105418;28;20242;-68
2023/12/17 06:47:20;;;;;;;15.70;8.90;;;-0.40;99.90;;;;;;5106058;28;20207;-68
2023/12/17 06:49:55;;;;;;;17.88;8.63;;;-0.30;99.90;;;;;;5105110;28;20207;-68
2023/12/17 06:52:23;;;;;;;16.10;7.63;;;-0.40;99.90;;;;;;5104607;28;20286;-66
2023/12/17 06:54:51;;;;;;;16.73;8.70;;;-0.40;99.90;;;;;;5104077;28;20693;-67
2023/12/17 06:57:20;;;;;;;15.15;8.35;;;-0.50;99.90;;;;;;5105476;28;20203;-67
2023/12/17 06:59:48;;;;;;;16.10;8.57;;;-0.40;99.90;;;;;;5106697;28;20252;-67
2023/12/17 07:02:17;;;;;;;17.00;9.07;;;-0.30;99.90;;;;;;5106076;28;20212;-67
2023/12/17 07:04:45;;;;;;;14.95;8.45;;;-0.30;99.90;;;;;;5103903;28;20227;-65
2023/12/17 07:07:13;;;;;;;15.98;9.45;;;-0.30;99.90;;;;;;5105552;28;20212;-67
2023/12/17 07:09:41;;;;;;;16.92;8.23;;;-0.30;99.90;;;;;;5105191;28;20213;-68
2023/12/17 07:12:11;;;;;;;17.42;9.00;;;-0.40;99.90;;;;;;5105615;28;20295;-67
2023/12/17 07:14:41;;;;;;;16.30;9.93;;;-0.40;99.90;;;;;;5104099;28;20284;-68
2023/12/17 07:17:11;;;;;;;16.55;8.63;;;-0.40;99.90;;;;;;5106079;28;20290;-67
2023/12/17 07:19:39;;;;;;;17.23;8.77;;;-0.30;99.90;;;;;;5110244;28;20223;-66
2023/12/17 07:22:07;;;;;;;16.88;8.85;;;-0.30;99.90;;;;;;5110072;28;20216;-66
2023/12/17 07:24:35;;;;;;;17.05;9.43;;;-0.20;99.90;;;;;;5108167;28;20227;-67
2023/12/17 07:27:03;;;;;;;17.90;9.95;;;-0.20;99.90;;;;;;5110394;28;20416;-68
2023/12/17 07:29:31;;;;;;;18.08;9.70;;;-0.20;99.90;;;;;;5109862;28;20203;-66
2023/12/17 07:32:01;;;;;;;16.83;10.90;;;-0.10;99.90;;;;;;5110620;28;20828;-68
2023/12/17 07:34:27;;;;;;;20.25;10.80;;;0.00;99.90;;;;;;5108691;28;20199;-67
2023/12/17 07:36:55;;;;;;;17.83;10.02;;;0.00;99.90;;;;;;5109999;28;20684;-68
2023/12/17 07:39:23;;;;;;;21.92;11.70;;;0.10;99.90;;;;;;5109623;28;20211;-67
2023/12/17 07:41:51;;;;;;;17.80;10.45;;;0.10;99.90;;;;;;5109959;28;20216;-68
2023/12/17 07:44:19;;;;;;;18.95;10.25;;;0.00;99.90;;;;;;5108575;28;20319;-66
2023/12/17 07:46:47;;;;;;;19.60;10.73;;;0.10;99.90;;;;;;5109157;28;20259;-67
2023/12/17 07:49:16;;;;;;;17.98;10.45;;;0.20;99.90;;;;;;5108649;28;20280;-67
2023/12/17 07:51:45;;;;;;;19.10;11.98;;;0.30;99.90;;;;;;5109464;28;20264;-67
2023/12/17 07:54:12;;;;;;;21.90;12.23;;;0.30;99.90;;;;;;5108284;28;20971;-68
2023/12/17 07:56:40;;;;;;;20.15;11.02;;;0.40;99.90;;;;;;5108521;28;20237;-68
2023/12/17 07:59:09;;;;;;;17.95;10.77;;;0.40;99.90;;;;;;5109750;28;20266;-67
2023/12/17 08:01:37;;;;;;;19.33;11.43;;;0.40;99.90;;;;;;5109527;28;20243;-66
2023/12/17 08:04:05;;;;;;;17.45;10.30;;;0.50;99.90;;;;;;5108374;28;20298;-68
2023/12/17 08:06:34;;;;;;;21.95;11.60;;;0.60;99.90;;;;;;5107475;28;20232;-66
2023/12/17 08:09:04;;;;;;;23.90;11.20;;;0.60;99.90;;;;;;5108264;28;20312;-67
2023/12/17 08:11:32;;;;;;;19.50;11.15;;;0.70;99.90;;;;;;5108145;28;20299;-66
2023/12/17 08:14:00;;;;;;;18.58;10.80;;;0.70;99.90;;;;;;5107617;28;20293;-67
2023/12/17 08:16:28;;;;;;;20.33;11.35;;;0.70;99.90;;;;;;5107430;28;20286;-66
2023/12/17 08:18:56;;;;;;;18.58;10.57;;;0.70;99.90;;;;;;5108245;28;20228;-66
2023/12/17 08:21:24;;;;;;;17.95;10.27;;;0.80;99.90;;;;;;5107841;28;20785;-67
2023/12/17 08:23:53;;;;;;;20.80;11.10;;;0.80;99.90;;;;;;5086664;28;20571;-67
2023/12/17 08:26:21;;;;;;;18.67;11.00;;;0.90;99.90;;;;;;5086755;28;20225;-68
2023/12/17 08:28:51;;;;;;;20.70;12.05;;;0.90;99.90;;;;;;5086837;28;20205;-67
2023/12/17 08:31:19;;;;;;;20.63;11.95;;;1.00;99.90;;;;;;5087271;28;20210;-67
2023/12/17 08:33:51;;;;;;;19.58;10.52;;;1.00;99.90;;;;;;5086781;28;20213;-68
2023/12/17 08:36:19;;;;;;;20.20;12.30;;;1.10;99.90;;;;;;5086779;28;20272;-66
2023/12/17 08:38:47;;;;;;;17.58;10.90;;;1.20;99.90;;;;;;5087030;28;20311;-65
2023/12/17 08:41:16;;;;;;;17.92;10.75;;;1.30;99.90;;;;;;5083971;28;20927;-67
2023/12/17 08:43:45;;;;;;;20.97;10.30;;;1.40;99.90;;;;;;5098636;28;20240;-67
2023/12/17 08:46:13;;;;;;;18.70;10.55;;;1.60;99.90;;;;;;5089141;28;20515;-66
2023/12/17 08:48:41;;;;;;;22.40;11.57;;;1.60;99.90;;;;;;5090634;28;20210;-66
2023/12/17 08:51:09;;;;;;;17.05;10.65;;;1.60;99.90;;;;;;5087194;28;20705;-67
2023/12/17 08:53:37;;;;;;;18.43;11.83;;;1.70;99.90;;;;;;5087617;28;20211;-67
2023/12/17 08:56:09;;;;;;;18.17;10.63;;;1.90;99.90;;;;;;5087559;28;20486;-67
2023/12/17 08:58:38;;;;;;;19.83;11.17;;;2.00;99.90;;;;;;5088145;28;20435;-67
2023/12/17 09:01:06;;;;;;;17.03;10.33;;;2.10;99.90;;;;;;5088692;28;21235;-67
2023/12/17 09:03:34;;;;;;;18.13;10.47;;;2.20;99.90;;;;;;5087628;28;20450;-67
2023/12/17 09:06:02;;;;;;;19.80;11.10;;;2.20;99.90;;;;;;5093662;28;20477;-66
2023/12/17 09:08:30;;;;;;;21.03;11.33;;;2.30;99.90;;;;;;5089403;28;20448;-68
2023/12/17 09:10:58;;;;;;;18.07;10.60;;;2.30;99.90;;;;;;5088617;28;20593;-68
2023/12/17 09:13:26;;;;;;;17.87;11.67;;;2.30;99.90;;;;;;5087292;28;21261;-67
2023/12/17 09:15:56;;;;;;;20.87;11.37;;;2.40;99.90;;;;;;5083947;28;20466;-66
2023/12/17 09:18:24;;;;;;;16.50;10.57;;;2.40;99.90;;;;;;5091812;28;20481;-63
2023/12/17 09:20:52;;;;;;;16.83;10.20;;;2.50;99.90;;;;;;5094670;28;20480;-65
2023/12/17 09:23:21;;;;;;;19.13;11.30;;;2.50;99.90;;;;;;5088891;28;20450;-66
2023/12/17 09:25:50;;;;;;;17.07;9.90;;;2.60;99.90;;;;;;5086956;28;20889;-66
2023/12/17 09:28:18;;;;;;;15.87;9.47;;;2.60;99.90;;;;;;5090371;28;20449;-69
2023/12/17 09:30:46;;;;;;;18.83;10.80;;;2.70;99.90;;;;;;5096396;28;20451;-69
2023/12/17 09:33:16;;;;;;;19.03;11.43;;;2.70;99.90;;;;;;5086443;28;21444;-67
2023/12/17 09:35:44;;;;;;;16.77;10.63;;;2.80;99.90;;;;;;5087753;28;20998;-68
2023/12/17 09:38:14;;;;;;;14.97;9.10;;;2.90;99.90;;;;;;5087655;28;21025;-68
2023/12/17 09:40:43;;;;;;;14.63;9.20;;;3.00;99.90;;;;;;5100028;28;20458;-66
2023/12/17 09:43:11;;;;;;;15.20;10.17;;;3.00;99.90;;;;;;5095976;28;20544;-66
2023/12/17 09:45:41;;;;;;;16.73;9.93;;;3.00;99.90;;;;;;5098633;28;21005;-66
2023/12/17 09:48:08;;;;;;;16.87;9.70;;;3.20;99.90;;;;;;5097337;28;20439;-67
2023/12/17 09:50:38;;;;;;;18.83;10.80;;;3.20;99.90;;;;;;5097177;28;20452;-67
2023/12/17 09:53:06;;;;;;;16.73;10.53;;;3.30;99.90;;;;;;5093303;28;20551;-67
2023/12/17 09:55:34;;;;;;;13.87;8.87;;;3.40;99.90;;;;;;5092910;28;20462;-69
2023/12/17 09:58:05;;;;;;;16.07;9.60;;;3.40;99.90;;;;;;5096530;28;20501;-68
2023/12/17 10:00:34;;;;;;;16.60;9.97;;;3.50;99.90;;;;;;5093379;28;20445;-67
2023/12/17 10:03:03;;;;;;;17.60;10.77;;;3.60;99.90;;;;;;5099374;28;20434;-68
2023/12/17 10:05:38;;;;;;;14.70;9.03;;;3.70;99.90;;;;;;5096007;28;20540;-68
2023/12/17 10:08:06;;;;;;;15.63;9.67;;;3.80;99.90;;;;;;5100039;28;20517;-69
2023/12/17 10:10:36;;;;;;;16.43;10.63;;;3.90;99.90;;;;;;5099605;28;20434;-67
2023/12/17 10:13:04;;;;;;;16.73;9.90;;;4.00;99.90;;;;;;5096497;28;20443;-68
2023/12/17 10:15:39;;;;;;;17.67;9.03;;;4.20;99.90;;;;;;5104025;28;20572;-68
2023/12/17 10:18:07;;;;;;;16.37;9.20;;;4.40;99.90;;;;;;5085511;28;20925;-66
2023/12/17 10:20:36;;;;;;;15.00;9.73;;;4.70;99.90;;;;;;5085133;28;21165;-68
2023/12/17 10:23:05;;;;;;;16.53;9.37;;;5.40;99.90;;;;;;5084201;28;20889;-67
2023/12/17 10:25:33;;;;;;;16.43;9.40;;;6.00;99.90;;;;;;5083753;28;20493;-68
2023/12/17 10:28:01;;;;;;;16.33;10.00;;;6.60;99.90;;;;;;5085281;28;21161;-67
2023/12/17 10:30:30;;;;;;;17.47;8.40;;;7.10;99.90;;;;;;5085499;28;20443;-67
2023/12/17 10:33:01;;;;;;;15.23;8.70;;;7.40;99.90;;;;;;5096923;28;20486;-67
2023/12/17 10:35:31;;;;;;;15.17;8.33;;;7.70;99.90;;;;;;5104360;28;20541;-65
2023/12/17 10:38:01;;;;;;;12.67;8.57;;;7.80;99.90;;;;;;5092295;28;20440;-67
2023/12/17 10:40:32;;;;;;;13.07;7.90;;;7.60;99.90;;;;;;5084873;28;21011;-66
2023/12/17 10:43:01;;;;;;;14.00;9.00;;;7.20;99.90;;;;;;5096162;28;20462;-67
2023/12/17 10:45:31;;;;;;;13.63;7.90;;;6.90;99.90;;;;;;5099600;28;20945;-66
2023/12/17 10:48:00;;;;;;;14.17;7.77;;;6.60;99.90;;;;;;5106285;28;20484;-67
2023/12/17 10:50:28;;;;;;;13.80;7.80;;;6.40;99.90;;;;;;5107712;28;20526;-66
2023/12/17 10:52:57;;;;;;;15.00;7.77;;;6.30;99.90;;;;;;5106009;27;20449;-66
2023/12/17 10:55:25;;;;;;;13.70;8.10;;;6.30;99.90;;;;;;5105790;27;20461;-66
2023/12/17 10:57:58;;;;;;;12.70;7.13;;;6.10;99.90;;;;;;5097935;28;20444;-66
2023/12/17 11:00:29;;;;;;;16.27;8.27;;;6.10;99.90;;;;;;5097220;27;20966;-67
2023/12/17 11:02:59;;;;;;;13.53;7.70;;;6.00;99.90;;;;;;5088771;27;20454;-70
2023/12/17 11:05:27;;;;;;;14.03;7.87;;;6.10;99.90;;;;;;5099366;27;20542;-67
2023/12/17 11:07:56;;;;;;;12.73;7.57;;;6.10;99.90;;;;;;5095458;27;20438;-66
2023/12/17 11:10:24;;;;;;;11.50;7.23;;;6.10;99.90;;;;;;5091608;28;21897;-66
2023/12/17 11:12:53;;;;;;;12.17;7.03;;;6.00;99.90;;;;;;5092347;28;20479;-67
2023/12/17 11:15:23;;;;;;;14.67;8.00;;;6.00;99.90;;;;;;5082193;28;20465;-67
2023/12/17 11:17:53;;;;;;;14.33;7.67;;;5.90;99.90;;;;;;5084717;28;20429;-67
2023/12/17 11:20:22;;;;;;;14.70;9.03;;;5.90;99.90;;;;;;5094959;28;20533;-67
2023/12/17 11:22:51;;;;;;;13.17;7.40;;;5.90;99.90;;;;;;5093660;28;21295;-66
2023/12/17 11:25:29;;;;;;;13.13;7.20;;;6.00;99.90;;;;;;5085617;28;20480;-66
2023/12/17 11:27:57;;;;;;;14.17;7.90;;;6.00;99.90;;;;;;5090684;28;20971;-66
2023/12/17 11:30:30;;;;;;;14.20;8.20;;;6.00;99.90;;;;;;5109104;28;20444;-66
2023/12/17 11:32:59;;;;;;;15.23;9.20;;;6.10;99.90;;;;;;5093977;28;20453;-66
2023/12/17 11:35:28;;;;;;;14.37;7.77;;;6.10;99.90;;;;;;5090662;28;20490;-67
2023/12/17 11:37:57;;;;;;;13.17;7.30;;;6.00;99.90;;;;;;5089076;28;20434;-66
2023/12/17 11:40:27;;;;;;;14.70;8.33;;;6.00;99.90;;;;;;5089850;28;20472;-67
2023/12/17 11:43:02;;;;;;;13.20;7.30;;;6.00;99.90;;;;;;5087284;28;20446;-66
2023/12/17 11:45:35;;;;;;;12.33;7.40;;;6.10;99.90;;;;;;5092371;28;20459;-67
2023/12/17 11:48:08;;;;;;;12.60;7.40;;;6.10;99.90;;;;;;5097603;28;20527;-67
2023/12/17 11:50:44;;;;;;;14.60;7.83;;;6.10;99.90;;;;;;5088302;28;20511;-66
2023/12/17 11:53:14;;;;;;;12.83;7.50;;;6.30;99.90;;;;;;5090188;28;20460;-67
2023/12/17 11:55:46;;;;;;;16.63;8.20;;;6.30;99.90;;;;;;5092949;28;20875;-68
2023/12/17 11:58:17;;;;;;;14.87;8.30;;;6.30;99.90;;;;;;5092071;28;20430;-67
2023/12/17 12:03:40;;;;;;;13.77;8.50;;;6.40;99.90;;;;;;5121604;27;21088;-68
2023/12/17 12:06:10;;;;;;;14.07;7.30;;;6.40;99.90;;;;;;5122996;27;20477;-68
2023/12/17 12:08:41;;;;;;;13.43;7.87;;;6.40;99.90;;;;;;5117830;27;20531;-68
2023/12/17 12:11:12;;;;;;;13.50;7.43;;;6.50;99.90;;;;;;5121661;27;21162;-67
2023/12/17 12:13:42;;;;;;;13.60;7.33;;;6.60;99.90;;;;;;5123983;27;20836;-67
2023/12/17 12:16:12;;;;;;;12.57;7.77;;;6.70;99.90;;;;;;5120644;27;20549;-68
2023/12/17 12:18:41;;;;;;;13.27;7.20;;;6.70;99.90;;;;;;5119397;27;20453;-69
2023/12/17 12:21:17;;;;;;;12.13;6.90;;;6.80;99.90;;;;;;5119203;27;20437;-65
2023/12/17 12:23:52;;;;;;;12.40;7.83;;;6.90;99.90;;;;;;5117191;28;20436;-67
2023/12/17 12:26:21;;;;;;;16.10;7.50;;;7.00;99.90;;;;;;5119988;27;20495;-65
2023/12/17 12:28:55;;;;;;;12.90;7.27;;;6.90;99.90;;;;;;5117486;28;20448;-67
2023/12/17 12:31:24;;;;;;;12.90;7.97;;;6.90;99.90;;;;;;5118800;27;20495;-67
2023/12/17 12:33:54;;;;;;;14.77;8.63;;;7.00;99.90;;;;;;5118166;27;20438;-68
2023/12/17 12:36:23;;;;;;;15.17;7.63;;;7.00;99.90;;;;;;5116894;27;20461;-66
2023/12/17 12:39:01;;;;;;;16.33;8.10;;;6.90;99.90;;;;;;5117412;28;20447;-67
2023/12/17 12:41:30;;;;;;;12.83;7.90;;;6.80;99.90;;;;;;5119522;27;20738;-66
2023/12/17 12:43:58;;;;;;;14.07;8.23;;;6.80;99.90;;;;;;5118695;27;20446;-67
2023/12/17 12:46:26;;;;;;;15.07;7.27;;;6.90;99.90;;;;;;5120610;27;20527;-68
2023/12/17 12:48:56;;;;;;;13.73;7.87;;;6.90;99.90;;;;;;5117179;28;20512;-68